sensor_id;sensor_type;location;lat;lon;timestamp;P1;durP1;ratioP1;P2;durP2;ratioP2
35380;SDS011;21486;51.916;8.378;2023-04-15T00:00:11;10.75;;;7.35;;
35380;SDS011;21486;51.916;8.378;2023-04-15T00:02:37;10.98;;;7.00;;
35380;SDS011;21486;51.916;8.378;2023-04-15T00:05:03;10.90;;;7.40;;
35380;SDS011;21486;51.916;8.378;2023-04-15T00:07:30;10.80;;;7.13;;
35380;SDS011;21486;51.916;8.378;2023-04-15T00:09:55;10.95;;;6.82;;
35380;SDS011;21486;51.916;8.378;2023-04-15T00:12:25;10.80;;;7.30;;
35380;SDS011;21486;51.916;8.378;2023-04-15T00:14:51;13.30;;;7.55;;
35380;SDS011;21486;51.916;8.378;2023-04-15T00:17:17;10.73;;;7.25;;
35380;SDS011;21486;51.916;8.378;2023-04-15T00:19:43;11.07;;;7.78;;
35380;SDS011;21486;51.916;8.378;2023-04-15T00:22:11;10.27;;;7.63;;
35380;SDS011;21486;51.916;8.378;2023-04-15T00:24:37;9.65;;;7.50;;
35380;SDS011;21486;51.916;8.378;2023-04-15T00:27:03;10.60;;;7.30;;
35380;SDS011;21486;51.916;8.378;2023-04-15T00:29:29;8.90;;;6.83;;
35380;SDS011;21486;51.916;8.378;2023-04-15T00:33:01;9.00;;;6.68;;
35380;SDS011;21486;51.916;8.378;2023-04-15T00:35:27;11.55;;;7.68;;
35380;SDS011;21486;51.916;8.378;2023-04-15T00:37:53;13.15;;;7.75;;
35380;SDS011;21486;51.916;8.378;2023-04-15T00:40:19;14.88;;;7.28;;
35380;SDS011;21486;51.916;8.378;2023-04-15T00:42:45;11.35;;;7.68;;
35380;SDS011;21486;51.916;8.378;2023-04-15T00:45:11;12.13;;;7.82;;
35380;SDS011;21486;51.916;8.378;2023-04-15T00:47:38;11.80;;;8.15;;
35380;SDS011;21486;51.916;8.378;2023-04-15T00:50:05;11.18;;;7.75;;
35380;SDS011;21486;51.916;8.378;2023-04-15T00:52:31;10.65;;;7.40;;
35380;SDS011;21486;51.916;8.378;2023-04-15T00:54:57;11.10;;;7.70;;
35380;SDS011;21486;51.916;8.378;2023-04-15T00:57:23;12.05;;;7.85;;
35380;SDS011;21486;51.916;8.378;2023-04-15T00:59:50;13.43;;;8.40;;
35380;SDS011;21486;51.916;8.378;2023-04-15T01:02:16;11.98;;;8.15;;
35380;SDS011;21486;51.916;8.378;2023-04-15T01:04:42;11.37;;;8.13;;
35380;SDS011;21486;51.916;8.378;2023-04-15T01:07:08;12.90;;;8.40;;
35380;SDS011;21486;51.916;8.378;2023-04-15T01:09:33;12.73;;;9.13;;
35380;SDS011;21486;51.916;8.378;2023-04-15T01:11:59;12.37;;;8.20;;
35380;SDS011;21486;51.916;8.378;2023-04-15T01:14:25;13.98;;;8.65;;
35380;SDS011;21486;51.916;8.378;2023-04-15T01:16:51;13.98;;;9.05;;
35380;SDS011;21486;51.916;8.378;2023-04-15T01:19:17;12.30;;;8.35;;
35380;SDS011;21486;51.916;8.378;2023-04-15T01:21:43;12.68;;;8.43;;
35380;SDS011;21486;51.916;8.378;2023-04-15T01:24:09;13.55;;;8.85;;
35380;SDS011;21486;51.916;8.378;2023-04-15T01:26:38;13.88;;;8.70;;
35380;SDS011;21486;51.916;8.378;2023-04-15T01:29:04;13.95;;;9.52;;
35380;SDS011;21486;51.916;8.378;2023-04-15T01:31:31;11.98;;;8.65;;
35380;SDS011;21486;51.916;8.378;2023-04-15T01:33:57;15.63;;;9.13;;
35380;SDS011;21486;51.916;8.378;2023-04-15T01:36:23;13.77;;;9.52;;
35380;SDS011;21486;51.916;8.378;2023-04-15T01:38:49;13.60;;;9.20;;
35380;SDS011;21486;51.916;8.378;2023-04-15T01:41:15;13.27;;;9.13;;
35380;SDS011;21486;51.916;8.378;2023-04-15T01:43:41;12.70;;;9.13;;
35380;SDS011;21486;51.916;8.378;2023-04-15T01:46:06;16.90;;;9.77;;
35380;SDS011;21486;51.916;8.378;2023-04-15T01:48:32;18.43;;;10.33;;
35380;SDS011;21486;51.916;8.378;2023-04-15T01:50:57;15.00;;;10.60;;
35380;SDS011;21486;51.916;8.378;2023-04-15T01:53:24;14.32;;;10.02;;
35380;SDS011;21486;51.916;8.378;2023-04-15T01:55:50;14.75;;;10.07;;
35380;SDS011;21486;51.916;8.378;2023-04-15T01:58:16;14.65;;;9.77;;
35380;SDS011;21486;51.916;8.378;2023-04-15T02:00:43;16.05;;;10.38;;
35380;SDS011;21486;51.916;8.378;2023-04-15T02:03:09;14.15;;;10.23;;
35380;SDS011;21486;51.916;8.378;2023-04-15T02:05:34;15.75;;;10.43;;
35380;SDS011;21486;51.916;8.378;2023-04-15T02:08:00;16.40;;;11.27;;
35380;SDS011;21486;51.916;8.378;2023-04-15T02:10:26;16.13;;;11.40;;
35380;SDS011;21486;51.916;8.378;2023-04-15T02:12:51;19.63;;;13.47;;
35380;SDS011;21486;51.916;8.378;2023-04-15T02:15:18;16.60;;;12.23;;
35380;SDS011;21486;51.916;8.378;2023-04-15T02:17:44;17.92;;;12.13;;
35380;SDS011;21486;51.916;8.378;2023-04-15T02:20:14;19.73;;;12.93;;
35380;SDS011;21486;51.916;8.378;2023-04-15T02:22:40;19.55;;;13.18;;
35380;SDS011;21486;51.916;8.378;2023-04-15T02:25:06;18.42;;;12.32;;
35380;SDS011;21486;51.916;8.378;2023-04-15T02:27:33;20.02;;;13.40;;
35380;SDS011;21486;51.916;8.378;2023-04-15T02:29:59;19.75;;;12.98;;
35380;SDS011;21486;51.916;8.378;2023-04-15T02:32:25;20.25;;;12.25;;
35380;SDS011;21486;51.916;8.378;2023-04-15T02:34:51;20.15;;;12.95;;
35380;SDS011;21486;51.916;8.378;2023-04-15T02:37:17;19.10;;;12.50;;
35380;SDS011;21486;51.916;8.378;2023-04-15T02:39:44;17.13;;;12.82;;
35380;SDS011;21486;51.916;8.378;2023-04-15T02:42:10;19.55;;;12.85;;
35380;SDS011;21486;51.916;8.378;2023-04-15T02:44:35;19.10;;;13.85;;
35380;SDS011;21486;51.916;8.378;2023-04-15T02:47:01;20.73;;;13.80;;
35380;SDS011;21486;51.916;8.378;2023-04-15T02:49:28;20.40;;;14.23;;
35380;SDS011;21486;51.916;8.378;2023-04-15T02:51:54;24.65;;;15.70;;
35380;SDS011;21486;51.916;8.378;2023-04-15T02:54:22;23.00;;;15.20;;
35380;SDS011;21486;51.916;8.378;2023-04-15T02:56:49;22.80;;;15.60;;
35380;SDS011;21486;51.916;8.378;2023-04-15T02:59:19;22.90;;;15.45;;
35380;SDS011;21486;51.916;8.378;2023-04-15T03:01:44;24.05;;;16.00;;
35380;SDS011;21486;51.916;8.378;2023-04-15T03:04:10;23.65;;;15.55;;
35380;SDS011;21486;51.916;8.378;2023-04-15T03:06:35;24.33;;;16.40;;
35380;SDS011;21486;51.916;8.378;2023-04-15T03:09:01;24.63;;;17.30;;
35380;SDS011;21486;51.916;8.378;2023-04-15T03:11:27;22.35;;;16.25;;
35380;SDS011;21486;51.916;8.378;2023-04-15T03:13:53;23.60;;;16.20;;
35380;SDS011;21486;51.916;8.378;2023-04-15T03:16:19;22.80;;;16.33;;
35380;SDS011;21486;51.916;8.378;2023-04-15T03:18:45;21.52;;;15.82;;
35380;SDS011;21486;51.916;8.378;2023-04-15T03:21:10;24.40;;;16.63;;
35380;SDS011;21486;51.916;8.378;2023-04-15T03:23:36;22.93;;;16.60;;
35380;SDS011;21486;51.916;8.378;2023-04-15T03:26:01;25.43;;;16.63;;
35380;SDS011;21486;51.916;8.378;2023-04-15T03:28:27;26.70;;;16.87;;
35380;SDS011;21486;51.916;8.378;2023-04-15T03:30:54;24.13;;;16.20;;
35380;SDS011;21486;51.916;8.378;2023-04-15T03:33:19;23.90;;;15.50;;
35380;SDS011;21486;51.916;8.378;2023-04-15T03:35:45;24.47;;;16.23;;
35380;SDS011;21486;51.916;8.378;2023-04-15T03:38:10;22.30;;;16.13;;
35380;SDS011;21486;51.916;8.378;2023-04-15T03:40:37;21.55;;;15.25;;
35380;SDS011;21486;51.916;8.378;2023-04-15T03:43:03;22.52;;;16.20;;
35380;SDS011;21486;51.916;8.378;2023-04-15T03:45:28;23.55;;;16.63;;
35380;SDS011;21486;51.916;8.378;2023-04-15T03:47:54;22.70;;;16.38;;
35380;SDS011;21486;51.916;8.378;2023-04-15T03:50:20;23.42;;;16.00;;
35380;SDS011;21486;51.916;8.378;2023-04-15T03:52:45;25.88;;;16.23;;
35380;SDS011;21486;51.916;8.378;2023-04-15T03:55:11;23.83;;;16.27;;
35380;SDS011;21486;51.916;8.378;2023-04-15T03:57:36;22.73;;;15.30;;
35380;SDS011;21486;51.916;8.378;2023-04-15T04:00:06;23.52;;;15.45;;
35380;SDS011;21486;51.916;8.378;2023-04-15T04:02:36;22.88;;;15.07;;
35380;SDS011;21486;51.916;8.378;2023-04-15T04:05:01;23.53;;;15.90;;
35380;SDS011;21486;51.916;8.378;2023-04-15T04:07:27;22.88;;;15.48;;
35380;SDS011;21486;51.916;8.378;2023-04-15T04:09:53;22.85;;;16.13;;
35380;SDS011;21486;51.916;8.378;2023-04-15T04:12:20;24.27;;;15.63;;
35380;SDS011;21486;51.916;8.378;2023-04-15T04:14:45;21.30;;;15.00;;
35380;SDS011;21486;51.916;8.378;2023-04-15T04:17:12;22.25;;;15.15;;
35380;SDS011;21486;51.916;8.378;2023-04-15T04:19:37;23.17;;;16.00;;
35380;SDS011;21486;51.916;8.378;2023-04-15T04:22:03;23.67;;;16.13;;
35380;SDS011;21486;51.916;8.378;2023-04-15T04:24:28;24.20;;;15.80;;
35380;SDS011;21486;51.916;8.378;2023-04-15T04:26:54;25.20;;;15.33;;
35380;SDS011;21486;51.916;8.378;2023-04-15T04:29:21;23.90;;;15.05;;
35380;SDS011;21486;51.916;8.378;2023-04-15T04:31:46;22.77;;;15.43;;
35380;SDS011;21486;51.916;8.378;2023-04-15T04:34:12;24.92;;;15.98;;
35380;SDS011;21486;51.916;8.378;2023-04-15T04:36:38;25.83;;;15.73;;
35380;SDS011;21486;51.916;8.378;2023-04-15T04:39:03;25.37;;;16.53;;
35380;SDS011;21486;51.916;8.378;2023-04-15T04:41:29;27.53;;;17.20;;
35380;SDS011;21486;51.916;8.378;2023-04-15T04:43:56;24.92;;;16.92;;
35380;SDS011;21486;51.916;8.378;2023-04-15T04:46:21;23.93;;;16.80;;
35380;SDS011;21486;51.916;8.378;2023-04-15T04:48:47;24.20;;;16.15;;
35380;SDS011;21486;51.916;8.378;2023-04-15T04:51:13;23.50;;;15.33;;
35380;SDS011;21486;51.916;8.378;2023-04-15T04:53:38;21.53;;;14.97;;
35380;SDS011;21486;51.916;8.378;2023-04-15T04:56:04;22.00;;;15.10;;
35380;SDS011;21486;51.916;8.378;2023-04-15T04:58:30;21.20;;;14.03;;
35380;SDS011;21486;51.916;8.378;2023-04-15T05:00:56;20.97;;;15.37;;
35380;SDS011;21486;51.916;8.378;2023-04-15T05:03:22;22.13;;;14.80;;
35380;SDS011;21486;51.916;8.378;2023-04-15T05:05:47;23.37;;;14.93;;
35380;SDS011;21486;51.916;8.378;2023-04-15T05:08:13;20.43;;;14.93;;
35380;SDS011;21486;51.916;8.378;2023-04-15T05:10:39;21.58;;;15.30;;
35380;SDS011;21486;51.916;8.378;2023-04-15T05:13:05;21.40;;;14.25;;
35380;SDS011;21486;51.916;8.378;2023-04-15T05:15:30;22.17;;;14.98;;
35380;SDS011;21486;51.916;8.378;2023-04-15T05:17:56;24.95;;;16.42;;
35380;SDS011;21486;51.916;8.378;2023-04-15T05:20:22;23.47;;;15.67;;
35380;SDS011;21486;51.916;8.378;2023-04-15T05:22:48;22.97;;;14.80;;
35380;SDS011;21486;51.916;8.378;2023-04-15T05:25:13;22.73;;;15.10;;
35380;SDS011;21486;51.916;8.378;2023-04-15T05:27:39;22.70;;;15.20;;
35380;SDS011;21486;51.916;8.378;2023-04-15T05:30:04;21.00;;;14.45;;
35380;SDS011;21486;51.916;8.378;2023-04-15T05:32:31;22.98;;;15.85;;
35380;SDS011;21486;51.916;8.378;2023-04-15T05:34:56;26.00;;;16.60;;
35380;SDS011;21486;51.916;8.378;2023-04-15T05:37:22;27.17;;;16.43;;
35380;SDS011;21486;51.916;8.378;2023-04-15T05:39:47;24.90;;;16.13;;
35380;SDS011;21486;51.916;8.378;2023-04-15T05:42:13;24.20;;;16.20;;
35380;SDS011;21486;51.916;8.378;2023-04-15T05:44:39;23.30;;;15.23;;
35380;SDS011;21486;51.916;8.378;2023-04-15T05:47:05;23.03;;;15.13;;
35380;SDS011;21486;51.916;8.378;2023-04-15T05:49:31;23.52;;;15.68;;
35380;SDS011;21486;51.916;8.378;2023-04-15T05:51:57;23.63;;;16.20;;
35380;SDS011;21486;51.916;8.378;2023-04-15T05:54:22;22.85;;;14.73;;
35380;SDS011;21486;51.916;8.378;2023-04-15T05:56:48;23.90;;;15.35;;
35380;SDS011;21486;51.916;8.378;2023-04-15T05:59:13;24.97;;;15.60;;
35380;SDS011;21486;51.916;8.378;2023-04-15T06:01:39;23.70;;;15.43;;
35380;SDS011;21486;51.916;8.378;2023-04-15T06:04:05;24.83;;;15.97;;
35380;SDS011;21486;51.916;8.378;2023-04-15T06:06:30;25.97;;;16.30;;
35380;SDS011;21486;51.916;8.378;2023-04-15T06:08:56;23.97;;;15.70;;
35380;SDS011;21486;51.916;8.378;2023-04-15T06:11:22;23.93;;;16.50;;
35380;SDS011;21486;51.916;8.378;2023-04-15T06:13:47;25.47;;;16.03;;
35380;SDS011;21486;51.916;8.378;2023-04-15T06:16:13;26.17;;;16.70;;
35380;SDS011;21486;51.916;8.378;2023-04-15T06:18:38;27.17;;;16.48;;
35380;SDS011;21486;51.916;8.378;2023-04-15T06:21:04;26.88;;;16.27;;
35380;SDS011;21486;51.916;8.378;2023-04-15T06:23:30;24.10;;;15.63;;
35380;SDS011;21486;51.916;8.378;2023-04-15T06:25:58;27.33;;;16.75;;
35380;SDS011;21486;51.916;8.378;2023-04-15T06:28:23;26.42;;;16.55;;
35380;SDS011;21486;51.916;8.378;2023-04-15T06:30:49;25.85;;;16.73;;
35380;SDS011;21486;51.916;8.378;2023-04-15T06:33:15;23.40;;;15.80;;
35380;SDS011;21486;51.916;8.378;2023-04-15T06:35:40;28.93;;;16.40;;
35380;SDS011;21486;51.916;8.378;2023-04-15T06:38:06;24.73;;;15.83;;
35380;SDS011;21486;51.916;8.378;2023-04-15T06:40:31;24.87;;;15.70;;
35380;SDS011;21486;51.916;8.378;2023-04-15T06:42:57;26.02;;;16.02;;
35380;SDS011;21486;51.916;8.378;2023-04-15T06:45:23;25.53;;;15.70;;
35380;SDS011;21486;51.916;8.378;2023-04-15T06:47:48;24.80;;;15.68;;
35380;SDS011;21486;51.916;8.378;2023-04-15T06:50:14;26.98;;;16.27;;
35380;SDS011;21486;51.916;8.378;2023-04-15T06:52:39;24.47;;;16.47;;
35380;SDS011;21486;51.916;8.378;2023-04-15T06:55:05;25.60;;;16.80;;
35380;SDS011;21486;51.916;8.378;2023-04-15T06:57:31;23.98;;;16.25;;
35380;SDS011;21486;51.916;8.378;2023-04-15T06:59:57;27.57;;;17.03;;
35380;SDS011;21486;51.916;8.378;2023-04-15T07:02:22;24.80;;;16.95;;
35380;SDS011;21486;51.916;8.378;2023-04-15T07:04:48;29.73;;;18.13;;
35380;SDS011;21486;51.916;8.378;2023-04-15T07:07:14;30.00;;;18.07;;
35380;SDS011;21486;51.916;8.378;2023-04-15T07:09:41;30.73;;;19.13;;
35380;SDS011;21486;51.916;8.378;2023-04-15T07:12:07;28.33;;;18.40;;
35380;SDS011;21486;51.916;8.378;2023-04-15T07:14:32;27.60;;;18.75;;
35380;SDS011;21486;51.916;8.378;2023-04-15T07:16:58;30.38;;;19.27;;
35380;SDS011;21486;51.916;8.378;2023-04-15T07:19:23;33.70;;;20.17;;
35380;SDS011;21486;51.916;8.378;2023-04-15T07:21:49;32.63;;;20.73;;
35380;SDS011;21486;51.916;8.378;2023-04-15T07:24:15;30.37;;;20.43;;
35380;SDS011;21486;51.916;8.378;2023-04-15T07:26:42;27.33;;;17.60;;
35380;SDS011;21486;51.916;8.378;2023-04-15T07:29:08;26.40;;;18.40;;
35380;SDS011;21486;51.916;8.378;2023-04-15T07:31:34;26.53;;;18.33;;
35380;SDS011;21486;51.916;8.378;2023-04-15T07:34:01;26.33;;;18.23;;
35380;SDS011;21486;51.916;8.378;2023-04-15T07:36:27;24.77;;;17.50;;
35380;SDS011;21486;51.916;8.378;2023-04-15T07:38:53;24.20;;;17.27;;
35380;SDS011;21486;51.916;8.378;2023-04-15T07:41:19;27.85;;;17.65;;
35380;SDS011;21486;51.916;8.378;2023-04-15T07:43:45;27.97;;;17.77;;
35380;SDS011;21486;51.916;8.378;2023-04-15T07:46:11;28.10;;;18.60;;
35380;SDS011;21486;51.916;8.378;2023-04-15T07:48:36;26.67;;;17.93;;
35380;SDS011;21486;51.916;8.378;2023-04-15T07:51:02;26.57;;;17.47;;
35380;SDS011;21486;51.916;8.378;2023-04-15T07:53:27;27.45;;;18.73;;
35380;SDS011;21486;51.916;8.378;2023-04-15T07:55:53;25.25;;;17.70;;
35380;SDS011;21486;51.916;8.378;2023-04-15T07:58:18;29.95;;;19.95;;
35380;SDS011;21486;51.916;8.378;2023-04-15T08:00:44;29.73;;;19.77;;
35380;SDS011;21486;51.916;8.378;2023-04-15T08:03:09;31.13;;;20.10;;
35380;SDS011;21486;51.916;8.378;2023-04-15T08:05:35;33.37;;;21.23;;
35380;SDS011;21486;51.916;8.378;2023-04-15T08:08:01;33.67;;;21.90;;
35380;SDS011;21486;51.916;8.378;2023-04-15T08:10:27;33.63;;;21.67;;
35380;SDS011;21486;51.916;8.378;2023-04-15T08:12:54;35.03;;;22.10;;
35380;SDS011;21486;51.916;8.378;2023-04-15T08:15:20;33.45;;;22.02;;
35380;SDS011;21486;51.916;8.378;2023-04-15T08:17:46;33.92;;;21.58;;
35380;SDS011;21486;51.916;8.378;2023-04-15T08:20:11;35.57;;;21.83;;
35380;SDS011;21486;51.916;8.378;2023-04-15T08:22:38;34.97;;;22.10;;
35380;SDS011;21486;51.916;8.378;2023-04-15T08:25:04;31.48;;;20.50;;
35380;SDS011;21486;51.916;8.378;2023-04-15T08:27:30;32.03;;;20.08;;
35380;SDS011;21486;51.916;8.378;2023-04-15T08:29:56;30.48;;;19.95;;
35380;SDS011;21486;51.916;8.378;2023-04-15T08:32:21;33.28;;;20.73;;
35380;SDS011;21486;51.916;8.378;2023-04-15T08:34:47;33.40;;;19.90;;
35380;SDS011;21486;51.916;8.378;2023-04-15T08:37:13;33.00;;;20.80;;
35380;SDS011;21486;51.916;8.378;2023-04-15T08:39:38;34.13;;;20.60;;
35380;SDS011;21486;51.916;8.378;2023-04-15T08:42:05;35.00;;;20.77;;
35380;SDS011;21486;51.916;8.378;2023-04-15T08:44:40;33.85;;;21.08;;
35380;SDS011;21486;51.916;8.378;2023-04-15T08:47:07;30.38;;;18.73;;
35380;SDS011;21486;51.916;8.378;2023-04-15T08:49:34;30.73;;;19.30;;
35380;SDS011;21486;51.916;8.378;2023-04-15T08:52:03;33.17;;;20.48;;
35380;SDS011;21486;51.916;8.378;2023-04-15T08:54:29;33.78;;;20.33;;
35380;SDS011;21486;51.916;8.378;2023-04-15T08:56:56;30.77;;;19.80;;
35380;SDS011;21486;51.916;8.378;2023-04-15T08:59:22;32.57;;;20.23;;
35380;SDS011;21486;51.916;8.378;2023-04-15T09:01:50;26.73;;;17.07;;
35380;SDS011;21486;51.916;8.378;2023-04-15T09:04:17;27.13;;;17.42;;
35380;SDS011;21486;51.916;8.378;2023-04-15T09:06:42;23.85;;;16.25;;
35380;SDS011;21486;51.916;8.378;2023-04-15T09:09:08;23.67;;;15.77;;
35380;SDS011;21486;51.916;8.378;2023-04-15T09:11:34;23.70;;;14.98;;
35380;SDS011;21486;51.916;8.378;2023-04-15T09:14:00;22.73;;;14.63;;
35380;SDS011;21486;51.916;8.378;2023-04-15T09:16:26;21.17;;;13.60;;
35380;SDS011;21486;51.916;8.378;2023-04-15T09:18:52;18.38;;;12.52;;
35380;SDS011;21486;51.916;8.378;2023-04-15T09:21:18;17.92;;;12.50;;
35380;SDS011;21486;51.916;8.378;2023-04-15T09:23:59;17.42;;;12.13;;
35380;SDS011;21486;51.916;8.378;2023-04-15T09:26:32;15.57;;;11.25;;
35380;SDS011;21486;51.916;8.378;2023-04-15T09:29:05;17.13;;;11.33;;
35380;SDS011;21486;51.916;8.378;2023-04-15T09:31:37;18.75;;;12.52;;
35380;SDS011;21486;51.916;8.378;2023-04-15T09:34:03;17.15;;;11.75;;
35380;SDS011;21486;51.916;8.378;2023-04-15T09:36:35;16.50;;;11.85;;
35380;SDS011;21486;51.916;8.378;2023-04-15T09:39:22;16.38;;;11.38;;
35380;SDS011;21486;51.916;8.378;2023-04-15T09:42:04;17.58;;;11.85;;
35380;SDS011;21486;51.916;8.378;2023-04-15T09:44:31;16.05;;;11.23;;
35380;SDS011;21486;51.916;8.378;2023-04-15T09:46:56;14.83;;;9.77;;
35380;SDS011;21486;51.916;8.378;2023-04-15T09:49:22;14.83;;;10.00;;
35380;SDS011;21486;51.916;8.378;2023-04-15T09:51:47;13.23;;;9.30;;
35380;SDS011;21486;51.916;8.378;2023-04-15T09:54:17;13.20;;;9.10;;
35380;SDS011;21486;51.916;8.378;2023-04-15T09:56:44;11.43;;;8.60;;
35380;SDS011;21486;51.916;8.378;2023-04-15T09:59:10;12.30;;;8.63;;
35380;SDS011;21486;51.916;8.378;2023-04-15T10:01:36;10.82;;;7.75;;
35380;SDS011;21486;51.916;8.378;2023-04-15T10:04:05;11.27;;;8.35;;
35380;SDS011;21486;51.916;8.378;2023-04-15T10:06:30;13.10;;;8.70;;
35380;SDS011;21486;51.916;8.378;2023-04-15T10:08:58;11.38;;;8.32;;
35380;SDS011;21486;51.916;8.378;2023-04-15T10:11:26;10.90;;;7.97;;
35380;SDS011;21486;51.916;8.378;2023-04-15T10:13:53;9.40;;;7.17;;
35380;SDS011;21486;51.916;8.378;2023-04-15T10:16:20;11.40;;;8.02;;
35380;SDS011;21486;51.916;8.378;2023-04-15T10:18:48;11.05;;;7.78;;
35380;SDS011;21486;51.916;8.378;2023-04-15T10:21:18;9.85;;;7.03;;
35380;SDS011;21486;51.916;8.378;2023-04-15T10:23:46;10.38;;;7.60;;
35380;SDS011;21486;51.916;8.378;2023-04-15T10:26:12;11.38;;;7.25;;
35380;SDS011;21486;51.916;8.378;2023-04-15T10:28:44;10.30;;;7.25;;
35380;SDS011;21486;51.916;8.378;2023-04-15T10:31:12;11.15;;;7.55;;
35380;SDS011;21486;51.916;8.378;2023-04-15T10:33:39;10.77;;;7.50;;
35380;SDS011;21486;51.916;8.378;2023-04-15T10:36:06;10.20;;;7.20;;
35380;SDS011;21486;51.916;8.378;2023-04-15T10:38:36;9.85;;;6.70;;
35380;SDS011;21486;51.916;8.378;2023-04-15T10:41:22;9.75;;;6.95;;
35380;SDS011;21486;51.916;8.378;2023-04-15T10:43:54;9.30;;;6.78;;
35380;SDS011;21486;51.916;8.378;2023-04-15T10:46:44;9.33;;;6.97;;
35380;SDS011;21486;51.916;8.378;2023-04-15T10:49:16;10.95;;;7.97;;
35380;SDS011;21486;51.916;8.378;2023-04-15T10:51:54;10.27;;;7.80;;
35380;SDS011;21486;51.916;8.378;2023-04-15T10:56:51;10.30;;;6.63;;
35380;SDS011;21486;51.916;8.378;2023-04-15T10:59:36;9.05;;;7.03;;
35380;SDS011;21486;51.916;8.378;2023-04-15T11:02:04;9.70;;;7.25;;
35380;SDS011;21486;51.916;8.378;2023-04-15T11:12:38;9.85;;;7.00;;
35380;SDS011;21486;51.916;8.378;2023-04-15T11:17:56;9.70;;;6.90;;
35380;SDS011;21486;51.916;8.378;2023-04-15T11:20:23;8.85;;;7.13;;
35380;SDS011;21486;51.916;8.378;2023-04-15T11:22:50;9.77;;;6.90;;
35380;SDS011;21486;51.916;8.378;2023-04-15T11:25:23;9.80;;;7.00;;
35380;SDS011;21486;51.916;8.378;2023-04-15T11:27:51;9.00;;;6.55;;
35380;SDS011;21486;51.916;8.378;2023-04-15T11:30:22;9.20;;;6.83;;
35380;SDS011;21486;51.916;8.378;2023-04-15T11:32:53;9.10;;;6.60;;
35380;SDS011;21486;51.916;8.378;2023-04-15T11:35:19;9.60;;;6.57;;
35380;SDS011;21486;51.916;8.378;2023-04-15T11:37:46;8.00;;;6.00;;
35380;SDS011;21486;51.916;8.378;2023-04-15T11:40:13;9.63;;;6.60;;
35380;SDS011;21486;51.916;8.378;2023-04-15T11:42:41;10.00;;;6.30;;
35380;SDS011;21486;51.916;8.378;2023-04-15T11:45:10;9.55;;;6.72;;
35380;SDS011;21486;51.916;8.378;2023-04-15T11:47:37;9.13;;;6.85;;
35380;SDS011;21486;51.916;8.378;2023-04-15T11:50:16;10.27;;;7.10;;
35380;SDS011;21486;51.916;8.378;2023-04-15T11:52:56;9.80;;;6.32;;
35380;SDS011;21486;51.916;8.378;2023-04-15T11:55:22;14.47;;;8.50;;
35380;SDS011;21486;51.916;8.378;2023-04-15T11:57:49;9.20;;;6.72;;
35380;SDS011;21486;51.916;8.378;2023-04-15T12:00:30;9.73;;;6.90;;
35380;SDS011;21486;51.916;8.378;2023-04-15T12:03:10;9.27;;;6.43;;
35380;SDS011;21486;51.916;8.378;2023-04-15T12:05:37;7.82;;;6.53;;
35380;SDS011;21486;51.916;8.378;2023-04-15T12:16:41;7.80;;;6.20;;
35380;SDS011;21486;51.916;8.378;2023-04-15T12:19:09;8.27;;;6.15;;
35380;SDS011;21486;51.916;8.378;2023-04-15T12:21:37;9.57;;;5.90;;
35380;SDS011;21486;51.916;8.378;2023-04-15T12:24:05;7.85;;;5.88;;
35380;SDS011;21486;51.916;8.378;2023-04-15T12:29:03;6.78;;;5.60;;
35380;SDS011;21486;51.916;8.378;2023-04-15T12:31:33;6.60;;;5.60;;
35380;SDS011;21486;51.916;8.378;2023-04-15T12:34:00;7.45;;;5.45;;
35380;SDS011;21486;51.916;8.378;2023-04-15T12:36:26;8.27;;;5.90;;
35380;SDS011;21486;51.916;8.378;2023-04-15T12:38:52;6.75;;;5.53;;
35380;SDS011;21486;51.916;8.378;2023-04-15T12:41:21;10.80;;;5.82;;
35380;SDS011;21486;51.916;8.378;2023-04-15T12:43:48;8.60;;;6.00;;
35380;SDS011;21486;51.916;8.378;2023-04-15T12:46:14;8.60;;;6.07;;
35380;SDS011;21486;51.916;8.378;2023-04-15T12:48:40;9.15;;;5.80;;
35380;SDS011;21486;51.916;8.378;2023-04-15T12:51:05;8.30;;;6.22;;
35380;SDS011;21486;51.916;8.378;2023-04-15T12:53:31;8.07;;;5.97;;
35380;SDS011;21486;51.916;8.378;2023-04-15T12:55:57;8.10;;;5.80;;
35380;SDS011;21486;51.916;8.378;2023-04-15T12:58:22;7.43;;;5.30;;
35380;SDS011;21486;51.916;8.378;2023-04-15T13:00:48;7.32;;;5.00;;
35380;SDS011;21486;51.916;8.378;2023-04-15T13:03:14;6.70;;;5.00;;
35380;SDS011;21486;51.916;8.378;2023-04-15T13:05:40;6.20;;;4.90;;
35380;SDS011;21486;51.916;8.378;2023-04-15T13:08:06;5.53;;;4.53;;
35380;SDS011;21486;51.916;8.378;2023-04-15T13:10:31;6.87;;;4.63;;
35380;SDS011;21486;51.916;8.378;2023-04-15T13:12:57;7.82;;;4.75;;
35380;SDS011;21486;51.916;8.378;2023-04-15T13:15:23;5.47;;;4.60;;
35380;SDS011;21486;51.916;8.378;2023-04-15T13:17:49;5.97;;;4.97;;
35380;SDS011;21486;51.916;8.378;2023-04-15T13:20:15;6.50;;;4.80;;
35380;SDS011;21486;51.916;8.378;2023-04-15T13:22:41;4.85;;;4.32;;
35380;SDS011;21486;51.916;8.378;2023-04-15T13:25:07;5.85;;;4.60;;
35380;SDS011;21486;51.916;8.378;2023-04-15T13:27:33;7.28;;;5.25;;
35380;SDS011;21486;51.916;8.378;2023-04-15T13:29:59;6.35;;;4.97;;
35380;SDS011;21486;51.916;8.378;2023-04-15T13:32:24;5.55;;;4.57;;
35380;SDS011;21486;51.916;8.378;2023-04-15T13:34:50;6.45;;;4.50;;
35380;SDS011;21486;51.916;8.378;2023-04-15T13:37:16;5.72;;;4.32;;
35380;SDS011;21486;51.916;8.378;2023-04-15T13:39:42;6.57;;;4.55;;
35380;SDS011;21486;51.916;8.378;2023-04-15T13:42:07;4.95;;;3.95;;
35380;SDS011;21486;51.916;8.378;2023-04-15T13:44:33;6.80;;;4.55;;
35380;SDS011;21486;51.916;8.378;2023-04-15T13:46:59;5.38;;;4.13;;
35380;SDS011;21486;51.916;8.378;2023-04-15T13:49:24;6.13;;;4.55;;
35380;SDS011;21486;51.916;8.378;2023-04-15T13:51:50;5.30;;;4.38;;
35380;SDS011;21486;51.916;8.378;2023-04-15T13:54:16;5.35;;;4.28;;
35380;SDS011;21486;51.916;8.378;2023-04-15T13:56:41;6.13;;;4.35;;
35380;SDS011;21486;51.916;8.378;2023-04-15T13:59:07;4.60;;;4.13;;
35380;SDS011;21486;51.916;8.378;2023-04-15T14:01:33;6.90;;;4.33;;
35380;SDS011;21486;51.916;8.378;2023-04-15T14:03:59;5.20;;;4.07;;
35380;SDS011;21486;51.916;8.378;2023-04-15T14:06:24;5.00;;;4.07;;
35380;SDS011;21486;51.916;8.378;2023-04-15T14:08:51;5.88;;;5.20;;
35380;SDS011;21486;51.916;8.378;2023-04-15T14:11:17;5.73;;;5.13;;
35380;SDS011;21486;51.916;8.378;2023-04-15T14:13:42;7.38;;;5.78;;
35380;SDS011;21486;51.916;8.378;2023-04-15T14:16:08;7.68;;;6.05;;
35380;SDS011;21486;51.916;8.378;2023-04-15T14:18:34;7.18;;;5.63;;
35380;SDS011;21486;51.916;8.378;2023-04-15T14:21:01;7.90;;;5.60;;
35380;SDS011;21486;51.916;8.378;2023-04-15T14:23:26;9.40;;;6.20;;
35380;SDS011;21486;51.916;8.378;2023-04-15T14:25:52;9.18;;;7.10;;
35380;SDS011;21486;51.916;8.378;2023-04-15T14:28:18;10.47;;;7.57;;
35380;SDS011;21486;51.916;8.378;2023-04-15T14:30:43;11.20;;;7.88;;
35380;SDS011;21486;51.916;8.378;2023-04-15T14:33:09;13.23;;;7.53;;
35380;SDS011;21486;51.916;8.378;2023-04-15T14:35:34;12.40;;;8.30;;
35380;SDS011;21486;51.916;8.378;2023-04-15T14:38:00;11.93;;;8.07;;
35380;SDS011;21486;51.916;8.378;2023-04-15T14:40:26;18.27;;;9.17;;
35380;SDS011;21486;51.916;8.378;2023-04-15T14:42:51;12.88;;;8.68;;
35380;SDS011;21486;51.916;8.378;2023-04-15T14:45:16;14.05;;;8.90;;
35380;SDS011;21486;51.916;8.378;2023-04-15T14:47:42;12.65;;;9.45;;
35380;SDS011;21486;51.916;8.378;2023-04-15T14:50:08;14.05;;;9.70;;
35380;SDS011;21486;51.916;8.378;2023-04-15T14:52:34;12.77;;;9.48;;